< < Back
Terminal Aerodrome Forecast


Current Version              Previous Versions:   1  2  3  4  5  6  7  8  9  

Terminal Aerodrome Forecast

092
FTUS44 KMOB 271400 AAA
TAFPNS
TAF AMD
KPNS 271431Z 2715/2812 02012G18KT P6SM FEW012 SCT250=



Latest METAR

707
SAUS70 KWBC 272200 RRQ
MTRPNS
METAR KPNS 272153Z VRB05KT 10SM CLR 14/M02 A3027 RMK AO2 SLP253
T01391017


USA.gov is the U.S. government's official web portal to all federal, state and local government web resources and services.